sensor_id;sensor_type;location;lat;lon;timestamp;temperature;humidity
40952;DHT22;26682;51.660;19.338;2023-07-31T00:01:54;18.00;99.90
40952;DHT22;26682;51.660;19.338;2023-07-31T00:04:36;17.90;99.90
40952;DHT22;26682;51.660;19.338;2023-07-31T00:07:19;17.90;99.90
40952;DHT22;26682;51.660;19.338;2023-07-31T00:10:01;17.90;99.90
40952;DHT22;26682;51.660;19.338;2023-07-31T00:12:45;17.80;99.90
40952;DHT22;26682;51.660;19.338;2023-07-31T00:15:27;17.80;1.00
40952;DHT22;26682;51.660;19.338;2023-07-31T00:18:10;17.70;1.00
40952;DHT22;26682;51.660;19.338;2023-07-31T00:20:52;17.60;1.00
40952;DHT22;26682;51.660;19.338;2023-07-31T00:23:34;17.60;27.90
40952;DHT22;26682;51.660;19.338;2023-07-31T00:26:17;17.50;94.50
40952;DHT22;26682;51.660;19.338;2023-07-31T00:28:59;17.40;99.90
40952;DHT22;26682;51.660;19.338;2023-07-31T00:31:42;17.40;99.90
40952;DHT22;26682;51.660;19.338;2023-07-31T00:34:24;17.40;99.90
40952;DHT22;26682;51.660;19.338;2023-07-31T00:37:06;17.30;99.90
40952;DHT22;26682;51.660;19.338;2023-07-31T00:39:49;17.30;99.90
40952;DHT22;26682;51.660;19.338;2023-07-31T00:42:31;17.20;99.90
40952;DHT22;26682;51.660;19.338;2023-07-31T00:45:14;17.20;99.90
40952;DHT22;26682;51.660;19.338;2023-07-31T00:47:56;17.20;99.90
40952;DHT22;26682;51.660;19.338;2023-07-31T00:50:39;17.10;99.90
40952;DHT22;26682;51.660;19.338;2023-07-31T00:53:21;17.10;99.90
40952;DHT22;26682;51.660;19.338;2023-07-31T00:56:05;17.10;99.90
40952;DHT22;26682;51.660;19.338;2023-07-31T00:58:48;17.10;99.90
40952;DHT22;26682;51.660;19.338;2023-07-31T01:01:30;17.10;99.90
40952;DHT22;26682;51.660;19.338;2023-07-31T01:04:13;17.00;99.90
40952;DHT22;26682;51.660;19.338;2023-07-31T01:12:42;16.90;1.00
40952;DHT22;26682;51.660;19.338;2023-07-31T01:15:25;16.90;1.00
40952;DHT22;26682;51.660;19.338;2023-07-31T01:18:08;16.90;1.00
40952;DHT22;26682;51.660;19.338;2023-07-31T01:21:01;16.90;1.00
40952;DHT22;26682;51.660;19.338;2023-07-31T01:26:57;16.90;1.00
40952;DHT22;26682;51.660;19.338;2023-07-31T01:29:50;16.90;1.00
40952;DHT22;26682;51.660;19.338;2023-07-31T01:32:40;16.80;1.00
40952;DHT22;26682;51.660;19.338;2023-07-31T01:35:23;16.80;1.00
40952;DHT22;26682;51.660;19.338;2023-07-31T01:38:07;16.90;1.00
40952;DHT22;26682;51.660;19.338;2023-07-31T01:40:53;16.90;1.00
40952;DHT22;26682;51.660;19.338;2023-07-31T01:43:35;16.80;1.00
40952;DHT22;26682;51.660;19.338;2023-07-31T01:46:17;16.70;1.00
40952;DHT22;26682;51.660;19.338;2023-07-31T01:49:00;16.70;1.00
40952;DHT22;26682;51.660;19.338;2023-07-31T01:51:42;16.70;1.00
40952;DHT22;26682;51.660;19.338;2023-07-31T01:54:24;16.70;1.00
40952;DHT22;26682;51.660;19.338;2023-07-31T01:57:07;16.60;1.00
40952;DHT22;26682;51.660;19.338;2023-07-31T01:59:49;16.60;1.00
40952;DHT22;26682;51.660;19.338;2023-07-31T02:02:32;16.60;1.00
40952;DHT22;26682;51.660;19.338;2023-07-31T02:05:15;16.50;1.00
40952;DHT22;26682;51.660;19.338;2023-07-31T02:07:57;16.60;1.00
40952;DHT22;26682;51.660;19.338;2023-07-31T02:10:42;16.50;1.00
40952;DHT22;26682;51.660;19.338;2023-07-31T02:13:25;16.50;1.00
40952;DHT22;26682;51.660;19.338;2023-07-31T02:16:07;16.50;1.00
40952;DHT22;26682;51.660;19.338;2023-07-31T02:18:50;16.50;1.00
40952;DHT22;26682;51.660;19.338;2023-07-31T02:21:32;16.40;1.00
40952;DHT22;26682;51.660;19.338;2023-07-31T02:24:15;16.50;1.00
40952;DHT22;26682;51.660;19.338;2023-07-31T02:26:58;16.50;1.00
40952;DHT22;26682;51.660;19.338;2023-07-31T02:29:40;16.50;1.00
40952;DHT22;26682;51.660;19.338;2023-07-31T02:32:22;16.50;1.00
40952;DHT22;26682;51.660;19.338;2023-07-31T02:35:05;16.50;1.00
40952;DHT22;26682;51.660;19.338;2023-07-31T02:37:47;16.50;1.00
40952;DHT22;26682;51.660;19.338;2023-07-31T02:40:30;16.50;1.00
40952;DHT22;26682;51.660;19.338;2023-07-31T02:43:13;16.50;1.00
40952;DHT22;26682;51.660;19.338;2023-07-31T02:45:55;16.50;1.00
40952;DHT22;26682;51.660;19.338;2023-07-31T02:48:38;16.50;1.00
40952;DHT22;26682;51.660;19.338;2023-07-31T02:51:21;16.50;1.00
40952;DHT22;26682;51.660;19.338;2023-07-31T02:54:03;16.50;1.00
40952;DHT22;26682;51.660;19.338;2023-07-31T02:56:45;16.50;1.00
40952;DHT22;26682;51.660;19.338;2023-07-31T02:59:28;16.50;1.00
40952;DHT22;26682;51.660;19.338;2023-07-31T03:02:11;16.50;1.00
40952;DHT22;26682;51.660;19.338;2023-07-31T03:04:55;16.50;1.00
40952;DHT22;26682;51.660;19.338;2023-07-31T03:07:37;16.50;1.00
40952;DHT22;26682;51.660;19.338;2023-07-31T03:10:19;16.50;1.00
40952;DHT22;26682;51.660;19.338;2023-07-31T03:13:02;16.40;1.00
40952;DHT22;26682;51.660;19.338;2023-07-31T03:15:44;16.40;1.00
40952;DHT22;26682;51.660;19.338;2023-07-31T03:18:26;16.40;1.00
40952;DHT22;26682;51.660;19.338;2023-07-31T03:21:09;16.40;1.00
40952;DHT22;26682;51.660;19.338;2023-07-31T03:23:51;16.40;1.00
40952;DHT22;26682;51.660;19.338;2023-07-31T03:26:33;16.40;1.00
40952;DHT22;26682;51.660;19.338;2023-07-31T03:29:16;16.40;1.00
40952;DHT22;26682;51.660;19.338;2023-07-31T03:31:58;16.40;1.00
40952;DHT22;26682;51.660;19.338;2023-07-31T03:34:42;16.50;1.00
40952;DHT22;26682;51.660;19.338;2023-07-31T03:37:24;16.50;1.00
40952;DHT22;26682;51.660;19.338;2023-07-31T03:40:08;16.50;99.90
40952;DHT22;26682;51.660;19.338;2023-07-31T03:42:51;16.50;99.90
40952;DHT22;26682;51.660;19.338;2023-07-31T03:45:33;16.50;99.90
40952;DHT22;26682;51.660;19.338;2023-07-31T03:48:15;16.50;99.90
40952;DHT22;26682;51.660;19.338;2023-07-31T03:50:59;16.50;99.90
40952;DHT22;26682;51.660;19.338;2023-07-31T03:53:41;16.50;99.90
40952;DHT22;26682;51.660;19.338;2023-07-31T03:56:23;16.50;99.90
40952;DHT22;26682;51.660;19.338;2023-07-31T03:59:05;16.60;99.90
40952;DHT22;26682;51.660;19.338;2023-07-31T04:01:48;16.60;99.90
40952;DHT22;26682;51.660;19.338;2023-07-31T04:04:30;16.60;99.90
40952;DHT22;26682;51.660;19.338;2023-07-31T04:07:16;16.60;99.90
40952;DHT22;26682;51.660;19.338;2023-07-31T04:09:59;16.60;99.90
40952;DHT22;26682;51.660;19.338;2023-07-31T04:12:42;16.60;99.90
40952;DHT22;26682;51.660;19.338;2023-07-31T04:15:24;16.60;99.90
40952;DHT22;26682;51.660;19.338;2023-07-31T04:18:07;16.60;99.90
40952;DHT22;26682;51.660;19.338;2023-07-31T04:20:49;16.70;99.90
40952;DHT22;26682;51.660;19.338;2023-07-31T04:23:31;16.70;99.90
40952;DHT22;26682;51.660;19.338;2023-07-31T04:26:14;16.80;99.90
40952;DHT22;26682;51.660;19.338;2023-07-31T04:28:56;16.80;99.90
40952;DHT22;26682;51.660;19.338;2023-07-31T04:31:38;16.80;99.90
40952;DHT22;26682;51.660;19.338;2023-07-31T04:34:21;16.80;99.90
40952;DHT22;26682;51.660;19.338;2023-07-31T04:37:03;16.90;85.20
40952;DHT22;26682;51.660;19.338;2023-07-31T04:39:47;16.90;45.50
40952;DHT22;26682;51.660;19.338;2023-07-31T04:42:29;16.90;26.20
40952;DHT22;26682;51.660;19.338;2023-07-31T04:45:12;16.90;1.00
40952;DHT22;26682;51.660;19.338;2023-07-31T04:47:54;16.90;1.00
40952;DHT22;26682;51.660;19.338;2023-07-31T04:50:37;16.90;1.00
40952;DHT22;26682;51.660;19.338;2023-07-31T04:53:19;17.00;1.00
40952;DHT22;26682;51.660;19.338;2023-07-31T04:56:01;17.10;1.00
40952;DHT22;26682;51.660;19.338;2023-07-31T04:58:43;17.00;1.00
40952;DHT22;26682;51.660;19.338;2023-07-31T05:01:26;17.00;1.00
40952;DHT22;26682;51.660;19.338;2023-07-31T05:04:08;17.00;1.00
40952;DHT22;26682;51.660;19.338;2023-07-31T05:06:51;17.10;1.00
40952;DHT22;26682;51.660;19.338;2023-07-31T05:09:33;17.10;1.00
40952;DHT22;26682;51.660;19.338;2023-07-31T05:12:16;17.10;1.00
40952;DHT22;26682;51.660;19.338;2023-07-31T05:14:58;17.10;1.00
40952;DHT22;26682;51.660;19.338;2023-07-31T05:17:40;17.10;1.00
40952;DHT22;26682;51.660;19.338;2023-07-31T05:20:22;17.20;1.00
40952;DHT22;26682;51.660;19.338;2023-07-31T05:23:05;17.30;1.00
40952;DHT22;26682;51.660;19.338;2023-07-31T05:25:47;17.40;1.00
40952;DHT22;26682;51.660;19.338;2023-07-31T05:28:30;17.60;99.90
40952;DHT22;26682;51.660;19.338;2023-07-31T05:31:12;17.80;99.90
40952;DHT22;26682;51.660;19.338;2023-07-31T05:33:55;18.00;99.90
40952;DHT22;26682;51.660;19.338;2023-07-31T05:36:37;18.20;99.90
40952;DHT22;26682;51.660;19.338;2023-07-31T05:39:20;18.40;1.00
40952;DHT22;26682;51.660;19.338;2023-07-31T05:42:02;18.60;1.00
40952;DHT22;26682;51.660;19.338;2023-07-31T05:44:46;18.70;99.90
40952;DHT22;26682;51.660;19.338;2023-07-31T05:47:29;18.70;99.90
40952;DHT22;26682;51.660;19.338;2023-07-31T05:50:11;18.80;99.90
40952;DHT22;26682;51.660;19.338;2023-07-31T05:52:53;18.70;99.90
40952;DHT22;26682;51.660;19.338;2023-07-31T05:55:36;19.00;99.90
40952;DHT22;26682;51.660;19.338;2023-07-31T05:58:18;19.10;99.90
40952;DHT22;26682;51.660;19.338;2023-07-31T06:01:00;19.30;99.90
40952;DHT22;26682;51.660;19.338;2023-07-31T06:03:43;19.50;34.90
40952;DHT22;26682;51.660;19.338;2023-07-31T06:06:26;19.60;1.00
40952;DHT22;26682;51.660;19.338;2023-07-31T06:09:08;19.70;1.00
40952;DHT22;26682;51.660;19.338;2023-07-31T06:11:50;19.80;1.00
40952;DHT22;26682;51.660;19.338;2023-07-31T06:14:33;19.70;1.00
40952;DHT22;26682;51.660;19.338;2023-07-31T06:17:15;19.60;1.00
40952;DHT22;26682;51.660;19.338;2023-07-31T06:19:58;19.60;99.90
40952;DHT22;26682;51.660;19.338;2023-07-31T06:22:41;19.70;99.90
40952;DHT22;26682;51.660;19.338;2023-07-31T06:25:23;19.70;99.90
40952;DHT22;26682;51.660;19.338;2023-07-31T06:28:06;19.80;99.90
40952;DHT22;26682;51.660;19.338;2023-07-31T06:30:48;19.80;99.90
40952;DHT22;26682;51.660;19.338;2023-07-31T06:33:30;19.80;99.90
40952;DHT22;26682;51.660;19.338;2023-07-31T06:36:13;20.00;99.90
40952;DHT22;26682;51.660;19.338;2023-07-31T06:38:55;20.20;99.90
40952;DHT22;26682;51.660;19.338;2023-07-31T06:41:38;20.10;99.90
40952;DHT22;26682;51.660;19.338;2023-07-31T06:44:25;19.90;99.90
40952;DHT22;26682;51.660;19.338;2023-07-31T06:47:07;20.10;99.90
40952;DHT22;26682;51.660;19.338;2023-07-31T06:49:51;20.30;99.90
40952;DHT22;26682;51.660;19.338;2023-07-31T06:52:33;20.50;99.90
40952;DHT22;26682;51.660;19.338;2023-07-31T06:55:18;20.40;99.90
40952;DHT22;26682;51.660;19.338;2023-07-31T06:58:06;20.20;99.90
40952;DHT22;26682;51.660;19.338;2023-07-31T07:00:49;20.00;99.90
40952;DHT22;26682;51.660;19.338;2023-07-31T07:03:32;20.00;99.90
40952;DHT22;26682;51.660;19.338;2023-07-31T07:06:15;20.00;99.90
40952;DHT22;26682;51.660;19.338;2023-07-31T07:08:57;20.20;99.90
40952;DHT22;26682;51.660;19.338;2023-07-31T07:11:40;20.30;99.90
40952;DHT22;26682;51.660;19.338;2023-07-31T07:14:22;20.40;99.90
40952;DHT22;26682;51.660;19.338;2023-07-31T07:17:05;20.50;99.90
40952;DHT22;26682;51.660;19.338;2023-07-31T07:19:48;20.40;70.50
40952;DHT22;26682;51.660;19.338;2023-07-31T07:22:31;20.40;1.00
40952;DHT22;26682;51.660;19.338;2023-07-31T07:25:13;20.40;1.00
40952;DHT22;26682;51.660;19.338;2023-07-31T07:27:56;20.30;1.00
40952;DHT22;26682;51.660;19.338;2023-07-31T07:30:39;20.20;1.00
40952;DHT22;26682;51.660;19.338;2023-07-31T07:33:21;20.60;1.00
40952;DHT22;26682;51.660;19.338;2023-07-31T07:36:04;20.80;1.00
40952;DHT22;26682;51.660;19.338;2023-07-31T07:38:48;20.90;1.00
40952;DHT22;26682;51.660;19.338;2023-07-31T07:41:30;20.80;1.00
40952;DHT22;26682;51.660;19.338;2023-07-31T07:44:13;21.00;99.90
40952;DHT22;26682;51.660;19.338;2023-07-31T07:46:56;21.00;99.90
40952;DHT22;26682;51.660;19.338;2023-07-31T07:49:39;21.20;99.90
40952;DHT22;26682;51.660;19.338;2023-07-31T07:52:21;21.30;99.90
40952;DHT22;26682;51.660;19.338;2023-07-31T07:55:05;21.50;99.90
40952;DHT22;26682;51.660;19.338;2023-07-31T07:57:47;21.80;99.90
40952;DHT22;26682;51.660;19.338;2023-07-31T08:00:32;22.00;99.90
40952;DHT22;26682;51.660;19.338;2023-07-31T08:03:14;22.00;43.20
40952;DHT22;26682;51.660;19.338;2023-07-31T08:06:00;21.80;1.00
40952;DHT22;26682;51.660;19.338;2023-07-31T08:08:42;21.60;1.00
40952;DHT22;26682;51.660;19.338;2023-07-31T08:11:25;21.60;1.00
40952;DHT22;26682;51.660;19.338;2023-07-31T08:14:07;21.60;1.00
40952;DHT22;26682;51.660;19.338;2023-07-31T08:16:49;21.40;1.00
40952;DHT22;26682;51.660;19.338;2023-07-31T08:19:32;21.40;1.00
40952;DHT22;26682;51.660;19.338;2023-07-31T08:22:14;21.40;1.00
40952;DHT22;26682;51.660;19.338;2023-07-31T08:24:56;21.40;1.00
40952;DHT22;26682;51.660;19.338;2023-07-31T08:27:43;21.50;1.00
40952;DHT22;26682;51.660;19.338;2023-07-31T08:30:25;21.60;1.00
40952;DHT22;26682;51.660;19.338;2023-07-31T08:33:08;21.70;1.00
40952;DHT22;26682;51.660;19.338;2023-07-31T08:35:50;21.70;1.00
40952;DHT22;26682;51.660;19.338;2023-07-31T08:38:32;21.80;1.00
40952;DHT22;26682;51.660;19.338;2023-07-31T08:41:15;21.70;1.00
40952;DHT22;26682;51.660;19.338;2023-07-31T08:43:59;21.70;1.00
40952;DHT22;26682;51.660;19.338;2023-07-31T08:46:43;21.80;1.00
40952;DHT22;26682;51.660;19.338;2023-07-31T08:49:26;21.90;99.90
40952;DHT22;26682;51.660;19.338;2023-07-31T08:52:10;21.80;99.90
40952;DHT22;26682;51.660;19.338;2023-07-31T08:54:52;21.60;99.90
40952;DHT22;26682;51.660;19.338;2023-07-31T08:57:36;21.60;99.90
40952;DHT22;26682;51.660;19.338;2023-07-31T09:00:19;21.50;99.90
40952;DHT22;26682;51.660;19.338;2023-07-31T09:03:14;21.60;99.90
40952;DHT22;26682;51.660;19.338;2023-07-31T09:05:57;21.60;99.90
40952;DHT22;26682;51.660;19.338;2023-07-31T09:08:41;21.80;99.90
40952;DHT22;26682;51.660;19.338;2023-07-31T09:11:25;21.90;99.90
40952;DHT22;26682;51.660;19.338;2023-07-31T09:14:08;22.20;99.90
40952;DHT22;26682;51.660;19.338;2023-07-31T09:16:54;22.40;99.90
40952;DHT22;26682;51.660;19.338;2023-07-31T09:19:37;22.70;99.90
40952;DHT22;26682;51.660;19.338;2023-07-31T09:22:34;22.80;99.90
40952;DHT22;26682;51.660;19.338;2023-07-31T09:25:22;22.80;94.30
40952;DHT22;26682;51.660;19.338;2023-07-31T09:28:08;22.90;52.50
40952;DHT22;26682;51.660;19.338;2023-07-31T09:30:51;22.80;88.00
40952;DHT22;26682;51.660;19.338;2023-07-31T09:33:54;22.80;27.00
40952;DHT22;26682;51.660;19.338;2023-07-31T09:36:57;22.60;1.00
40952;DHT22;26682;51.660;19.338;2023-07-31T09:39:47;22.70;1.00
40952;DHT22;26682;51.660;19.338;2023-07-31T09:42:30;22.90;1.00
40952;DHT22;26682;51.660;19.338;2023-07-31T09:45:14;22.90;3.20
40952;DHT22;26682;51.660;19.338;2023-07-31T09:48:13;22.80;1.00
40952;DHT22;26682;51.660;19.338;2023-07-31T09:51:04;22.60;1.00
40952;DHT22;26682;51.660;19.338;2023-07-31T09:53:50;22.60;1.00
40952;DHT22;26682;51.660;19.338;2023-07-31T09:56:33;22.60;1.00
40952;DHT22;26682;51.660;19.338;2023-07-31T09:59:18;22.70;1.00
40952;DHT22;26682;51.660;19.338;2023-07-31T10:02:09;22.80;1.00
40952;DHT22;26682;51.660;19.338;2023-07-31T10:04:57;22.50;1.00
40952;DHT22;26682;51.660;19.338;2023-07-31T10:07:54;22.50;1.00
40952;DHT22;26682;51.660;19.338;2023-07-31T10:10:37;22.50;1.00
40952;DHT22;26682;51.660;19.338;2023-07-31T10:13:23;22.60;1.00
40952;DHT22;26682;51.660;19.338;2023-07-31T10:16:06;22.80;99.90
40952;DHT22;26682;51.660;19.338;2023-07-31T10:18:49;22.90;99.90
40952;DHT22;26682;51.660;19.338;2023-07-31T10:21:34;23.00;99.90
40952;DHT22;26682;51.660;19.338;2023-07-31T10:24:18;23.30;99.90
40952;DHT22;26682;51.660;19.338;2023-07-31T10:27:01;23.40;99.90
40952;DHT22;26682;51.660;19.338;2023-07-31T10:29:45;23.40;99.90
40952;DHT22;26682;51.660;19.338;2023-07-31T10:32:30;23.60;99.90
40952;DHT22;26682;51.660;19.338;2023-07-31T10:35:14;23.60;99.90
40952;DHT22;26682;51.660;19.338;2023-07-31T10:38:09;23.60;99.90
40952;DHT22;26682;51.660;19.338;2023-07-31T10:40:52;23.70;99.90
40952;DHT22;26682;51.660;19.338;2023-07-31T10:43:49;23.60;99.90
40952;DHT22;26682;51.660;19.338;2023-07-31T10:46:36;23.40;99.90
40952;DHT22;26682;51.660;19.338;2023-07-31T10:49:22;23.30;99.90
40952;DHT22;26682;51.660;19.338;2023-07-31T10:52:05;23.20;99.90
40952;DHT22;26682;51.660;19.338;2023-07-31T10:58:11;23.10;99.90
40952;DHT22;26682;51.660;19.338;2023-07-31T11:00:58;23.00;99.90
40952;DHT22;26682;51.660;19.338;2023-07-31T11:06:29;23.50;99.90
40952;DHT22;26682;51.660;19.338;2023-07-31T11:09:14;23.60;94.70
40952;DHT22;26682;51.660;19.338;2023-07-31T11:11:56;23.80;58.90
40952;DHT22;26682;51.660;19.338;2023-07-31T11:14:39;23.90;9.00
40952;DHT22;26682;51.660;19.338;2023-07-31T11:17:25;24.10;1.00
40952;DHT22;26682;51.660;19.338;2023-07-31T11:20:08;23.90;1.00
40952;DHT22;26682;51.660;19.338;2023-07-31T11:22:51;23.70;1.00
40952;DHT22;26682;51.660;19.338;2023-07-31T11:25:34;23.90;1.00
40952;DHT22;26682;51.660;19.338;2023-07-31T11:28:18;24.10;1.00
40952;DHT22;26682;51.660;19.338;2023-07-31T11:31:02;24.30;1.00
40952;DHT22;26682;51.660;19.338;2023-07-31T11:33:45;24.60;1.00
40952;DHT22;26682;51.660;19.338;2023-07-31T11:36:27;24.80;1.00
40952;DHT22;26682;51.660;19.338;2023-07-31T11:39:10;24.60;1.00
40952;DHT22;26682;51.660;19.338;2023-07-31T11:41:59;24.60;1.00
40952;DHT22;26682;51.660;19.338;2023-07-31T11:44:42;24.40;1.00
40952;DHT22;26682;51.660;19.338;2023-07-31T11:47:32;24.40;1.00
40952;DHT22;26682;51.660;19.338;2023-07-31T11:50:16;24.30;1.00
40952;DHT22;26682;51.660;19.338;2023-07-31T11:53:01;24.30;1.00
40952;DHT22;26682;51.660;19.338;2023-07-31T11:55:45;24.00;1.00
40952;DHT22;26682;51.660;19.338;2023-07-31T11:58:29;23.80;1.00
40952;DHT22;26682;51.660;19.338;2023-07-31T12:01:13;23.80;1.00
40952;DHT22;26682;51.660;19.338;2023-07-31T12:03:59;23.60;1.00
40952;DHT22;26682;51.660;19.338;2023-07-31T12:06:42;23.50;1.00
40952;DHT22;26682;51.660;19.338;2023-07-31T12:09:26;23.40;1.00
40952;DHT22;26682;51.660;19.338;2023-07-31T12:12:08;23.30;99.90
40952;DHT22;26682;51.660;19.338;2023-07-31T12:14:51;23.10;99.90
40952;DHT22;26682;51.660;19.338;2023-07-31T12:17:34;22.90;99.90
40952;DHT22;26682;51.660;19.338;2023-07-31T12:20:16;22.80;99.90
40952;DHT22;26682;51.660;19.338;2023-07-31T12:22:59;22.70;99.90
40952;DHT22;26682;51.660;19.338;2023-07-31T12:25:42;22.80;99.90
40952;DHT22;26682;51.660;19.338;2023-07-31T12:28:24;23.00;1.00
40952;DHT22;26682;51.660;19.338;2023-07-31T12:31:10;23.20;1.00
40952;DHT22;26682;51.660;19.338;2023-07-31T12:33:53;23.50;99.90
40952;DHT22;26682;51.660;19.338;2023-07-31T12:36:35;23.60;99.90
40952;DHT22;26682;51.660;19.338;2023-07-31T12:39:18;23.60;99.90
40952;DHT22;26682;51.660;19.338;2023-07-31T12:42:01;23.30;99.90
40952;DHT22;26682;51.660;19.338;2023-07-31T12:44:43;23.10;99.90
40952;DHT22;26682;51.660;19.338;2023-07-31T12:47:26;23.00;99.90
40952;DHT22;26682;51.660;19.338;2023-07-31T12:50:08;22.90;99.90
40952;DHT22;26682;51.660;19.338;2023-07-31T12:52:51;23.00;1.00
40952;DHT22;26682;51.660;19.338;2023-07-31T12:55:34;23.30;1.00
40952;DHT22;26682;51.660;19.338;2023-07-31T12:58:19;23.80;1.00
40952;DHT22;26682;51.660;19.338;2023-07-31T13:01:01;24.10;99.90
40952;DHT22;26682;51.660;19.338;2023-07-31T13:03:44;24.10;99.90
40952;DHT22;26682;51.660;19.338;2023-07-31T13:06:27;24.30;1.00
40952;DHT22;26682;51.660;19.338;2023-07-31T13:09:09;24.40;1.00
40952;DHT22;26682;51.660;19.338;2023-07-31T13:11:52;24.10;99.90
40952;DHT22;26682;51.660;19.338;2023-07-31T13:14:35;24.10;99.90
40952;DHT22;26682;51.660;19.338;2023-07-31T13:17:18;24.10;99.90
40952;DHT22;26682;51.660;19.338;2023-07-31T13:20:01;23.90;99.90
40952;DHT22;26682;51.660;19.338;2023-07-31T13:22:45;23.90;99.90
40952;DHT22;26682;51.660;19.338;2023-07-31T13:25:28;24.00;99.90
40952;DHT22;26682;51.660;19.338;2023-07-31T13:28:11;23.80;99.90
40952;DHT22;26682;51.660;19.338;2023-07-31T13:30:53;23.90;99.90
40952;DHT22;26682;51.660;19.338;2023-07-31T13:33:35;23.90;99.90
40952;DHT22;26682;51.660;19.338;2023-07-31T13:36:21;24.00;99.90
40952;DHT22;26682;51.660;19.338;2023-07-31T13:39:03;23.90;99.90
40952;DHT22;26682;51.660;19.338;2023-07-31T13:41:46;24.00;99.90
40952;DHT22;26682;51.660;19.338;2023-07-31T13:44:28;24.00;99.90
40952;DHT22;26682;51.660;19.338;2023-07-31T13:47:11;23.80;99.90
40952;DHT22;26682;51.660;19.338;2023-07-31T13:49:53;23.70;99.90
40952;DHT22;26682;51.660;19.338;2023-07-31T13:52:36;23.70;99.90
40952;DHT22;26682;51.660;19.338;2023-07-31T13:55:19;23.70;99.90
40952;DHT22;26682;51.660;19.338;2023-07-31T13:58:01;23.70;99.90
40952;DHT22;26682;51.660;19.338;2023-07-31T14:00:44;23.60;99.90
40952;DHT22;26682;51.660;19.338;2023-07-31T14:03:26;23.50;99.90
40952;DHT22;26682;51.660;19.338;2023-07-31T14:06:09;23.50;99.90
40952;DHT22;26682;51.660;19.338;2023-07-31T14:08:51;23.60;99.90
40952;DHT22;26682;51.660;19.338;2023-07-31T14:11:34;23.60;99.90
40952;DHT22;26682;51.660;19.338;2023-07-31T14:14:16;23.60;99.90
40952;DHT22;26682;51.660;19.338;2023-07-31T14:17:00;23.50;99.90
40952;DHT22;26682;51.660;19.338;2023-07-31T14:19:43;23.50;99.90
40952;DHT22;26682;51.660;19.338;2023-07-31T14:22:30;23.60;99.90
40952;DHT22;26682;51.660;19.338;2023-07-31T14:25:12;23.50;99.90
40952;DHT22;26682;51.660;19.338;2023-07-31T14:27:55;23.60;99.90
40952;DHT22;26682;51.660;19.338;2023-07-31T14:30:38;23.60;99.90
40952;DHT22;26682;51.660;19.338;2023-07-31T14:33:20;23.60;99.90
40952;DHT22;26682;51.660;19.338;2023-07-31T14:36:03;23.50;99.90
40952;DHT22;26682;51.660;19.338;2023-07-31T14:38:45;23.50;99.90
40952;DHT22;26682;51.660;19.338;2023-07-31T14:41:28;23.30;99.90
40952;DHT22;26682;51.660;19.338;2023-07-31T14:44:10;23.30;99.90
40952;DHT22;26682;51.660;19.338;2023-07-31T14:46:52;23.30;99.90
40952;DHT22;26682;51.660;19.338;2023-07-31T14:49:35;23.20;99.90
40952;DHT22;26682;51.660;19.338;2023-07-31T14:52:17;23.30;99.90
40952;DHT22;26682;51.660;19.338;2023-07-31T14:55:00;23.30;99.90
40952;DHT22;26682;51.660;19.338;2023-07-31T14:57:42;23.30;99.90
40952;DHT22;26682;51.660;19.338;2023-07-31T15:00:25;23.40;99.90
40952;DHT22;26682;51.660;19.338;2023-07-31T15:03:08;23.30;99.90
40952;DHT22;26682;51.660;19.338;2023-07-31T15:05:51;23.20;99.90
40952;DHT22;26682;51.660;19.338;2023-07-31T15:08:33;23.00;99.90
40952;DHT22;26682;51.660;19.338;2023-07-31T15:11:15;23.00;99.90
40952;DHT22;26682;51.660;19.338;2023-07-31T15:13:58;23.00;99.90
40952;DHT22;26682;51.660;19.338;2023-07-31T15:16:41;23.10;99.90
40952;DHT22;26682;51.660;19.338;2023-07-31T15:19:24;23.00;99.90
40952;DHT22;26682;51.660;19.338;2023-07-31T15:22:06;23.10;99.90
40952;DHT22;26682;51.660;19.338;2023-07-31T15:24:49;23.20;99.90
40952;DHT22;26682;51.660;19.338;2023-07-31T15:27:31;23.10;99.90
40952;DHT22;26682;51.660;19.338;2023-07-31T15:30:13;22.80;99.90
40952;DHT22;26682;51.660;19.338;2023-07-31T15:32:56;22.70;99.90
40952;DHT22;26682;51.660;19.338;2023-07-31T15:35:38;22.70;99.90
40952;DHT22;26682;51.660;19.338;2023-07-31T15:38:24;22.70;99.90
40952;DHT22;26682;51.660;19.338;2023-07-31T15:41:06;22.80;99.90
40952;DHT22;26682;51.660;19.338;2023-07-31T15:43:49;22.80;99.90
40952;DHT22;26682;51.660;19.338;2023-07-31T15:46:32;22.80;99.90
40952;DHT22;26682;51.660;19.338;2023-07-31T15:49:15;22.70;99.90
40952;DHT22;26682;51.660;19.338;2023-07-31T15:51:57;22.60;99.90
40952;DHT22;26682;51.660;19.338;2023-07-31T15:54:40;22.60;99.90
40952;DHT22;26682;51.660;19.338;2023-07-31T15:57:23;22.70;99.90
40952;DHT22;26682;51.660;19.338;2023-07-31T16:00:06;22.70;99.90
40952;DHT22;26682;51.660;19.338;2023-07-31T16:02:49;22.70;99.90
40952;DHT22;26682;51.660;19.338;2023-07-31T16:05:32;22.60;99.90
40952;DHT22;26682;51.660;19.338;2023-07-31T16:08:14;22.50;99.90
40952;DHT22;26682;51.660;19.338;2023-07-31T16:10:56;22.50;99.90
40952;DHT22;26682;51.660;19.338;2023-07-31T16:13:39;22.60;99.90
40952;DHT22;26682;51.660;19.338;2023-07-31T16:16:21;22.50;99.90
40952;DHT22;26682;51.660;19.338;2023-07-31T16:19:04;22.50;99.90
40952;DHT22;26682;51.660;19.338;2023-07-31T16:21:47;22.40;99.90
40952;DHT22;26682;51.660;19.338;2023-07-31T16:24:29;22.40;99.90
40952;DHT22;26682;51.660;19.338;2023-07-31T16:27:12;22.40;99.90
40952;DHT22;26682;51.660;19.338;2023-07-31T16:29:54;22.30;99.90
40952;DHT22;26682;51.660;19.338;2023-07-31T16:32:38;22.30;99.90
40952;DHT22;26682;51.660;19.338;2023-07-31T16:35:20;22.40;99.90
40952;DHT22;26682;51.660;19.338;2023-07-31T16:38:03;22.40;99.90
40952;DHT22;26682;51.660;19.338;2023-07-31T16:40:46;22.40;99.90
40952;DHT22;26682;51.660;19.338;2023-07-31T16:43:29;22.40;99.90
40952;DHT22;26682;51.660;19.338;2023-07-31T16:46:12;22.40;99.90
40952;DHT22;26682;51.660;19.338;2023-07-31T16:48:54;22.40;99.90
40952;DHT22;26682;51.660;19.338;2023-07-31T16:51:37;22.40;99.90
40952;DHT22;26682;51.660;19.338;2023-07-31T16:54:21;22.30;99.90
40952;DHT22;26682;51.660;19.338;2023-07-31T16:57:04;22.30;99.90
40952;DHT22;26682;51.660;19.338;2023-07-31T16:59:46;22.30;99.90
40952;DHT22;26682;51.660;19.338;2023-07-31T17:02:29;22.30;99.90
40952;DHT22;26682;51.660;19.338;2023-07-31T17:05:12;22.20;99.90
40952;DHT22;26682;51.660;19.338;2023-07-31T17:07:54;22.10;99.90
40952;DHT22;26682;51.660;19.338;2023-07-31T17:10:39;22.00;99.90
40952;DHT22;26682;51.660;19.338;2023-07-31T17:13:22;21.90;99.90
40952;DHT22;26682;51.660;19.338;2023-07-31T17:16:05;21.90;99.90
40952;DHT22;26682;51.660;19.338;2023-07-31T17:18:48;21.90;99.90